createdAt,value
2018-11-11T00:02:20.358Z,88.34
2018-11-11T00:04:48.478Z,88.86
2018-11-11T00:07:16.589Z,88.76
2018-11-11T00:09:44.800Z,87.82
2018-11-11T00:12:12.915Z,87.33
2018-11-11T00:14:41.546Z,87.79
2018-11-11T00:17:09.667Z,88.23
2018-11-11T00:19:37.786Z,87.65
2018-11-11T00:22:05.951Z,87.77
2018-11-11T00:24:34.058Z,87.96
2018-11-11T00:27:03.033Z,88.21
2018-11-11T00:29:31.157Z,88.59
2018-11-11T00:31:59.254Z,87.96
2018-11-11T00:34:27.350Z,87.93
2018-11-11T00:36:55.445Z,87.90
2018-11-11T00:39:23.592Z,87.62
2018-11-11T00:41:51.723Z,87.43
2018-11-11T00:44:19.806Z,87.97
2018-11-11T00:46:48.158Z,87.17
2018-11-11T00:49:16.366Z,87.15
2018-11-11T00:51:44.517Z,87.00
2018-11-11T00:54:12.691Z,86.57
2018-11-11T00:56:40.797Z,86.85
2018-11-11T00:59:09.428Z,86.86
2018-11-11T01:01:37.554Z,86.81
2018-11-11T01:04:05.948Z,86.89
2018-11-11T01:06:34.117Z,86.60
2018-11-11T01:09:02.685Z,87.42
2018-11-11T01:11:30.787Z,87.48
2018-11-11T01:13:58.898Z,88.19
2018-11-11T01:16:27.007Z,88.30
2018-11-11T01:18:55.114Z,89.20
2018-11-11T01:21:23.223Z,89.66
2018-11-11T01:23:51.323Z,90.05
2018-11-11T01:26:19.424Z,90.95
2018-11-11T01:28:47.525Z,91.59
2018-11-11T01:31:15.649Z,91.09
2018-11-11T01:33:43.801Z,92.06
2018-11-11T01:39:14.867Z,91.87
2018-11-11T01:41:42.978Z,91.83
2018-11-11T01:44:11.079Z,91.68
2018-11-11T01:46:39.170Z,91.56
2018-11-11T01:49:07.297Z,91.49
2018-11-11T01:51:35.401Z,92.18
2018-11-11T01:54:03.609Z,91.19
2018-11-11T01:56:31.738Z,91.29
2018-11-11T01:58:59.806Z,91.54
2018-11-11T02:01:27.942Z,92.00
2018-11-11T02:03:56.109Z,92.71
2018-11-11T02:06:24.205Z,92.13
2018-11-11T02:08:52.307Z,92.40
2018-11-11T02:11:20.424Z,91.84
2018-11-11T02:13:48.520Z,92.35
2018-11-11T02:16:16.677Z,92.03
2018-11-11T02:18:44.774Z,92.05
2018-11-11T02:21:12.960Z,91.32
2018-11-11T02:23:41.066Z,91.69
2018-11-11T02:26:09.179Z,91.31
2018-11-11T02:28:37.275Z,91.98
2018-11-11T02:31:06.145Z,92.58
2018-11-11T02:33:34.390Z,92.89
2018-11-11T02:36:02.481Z,91.93
2018-11-11T02:38:30.611Z,92.10
2018-11-11T02:40:58.774Z,91.79
2018-11-11T02:43:26.860Z,91.42
2018-11-11T02:45:54.999Z,91.98
2018-11-11T02:48:23.116Z,91.58
2018-11-11T02:50:51.218Z,91.88
2018-11-11T02:53:19.409Z,91.40
2018-11-11T02:55:47.505Z,91.34
2018-11-11T02:58:15.606Z,91.87
2018-11-11T03:00:44.301Z,91.32
2018-11-11T03:03:12.414Z,91.64
2018-11-11T03:05:40.513Z,91.72
2018-11-11T03:08:08.613Z,91.70
2018-11-11T03:10:36.724Z,91.15
2018-11-11T03:13:05.334Z,90.96
2018-11-11T03:15:33.511Z,90.41
2018-11-11T03:18:01.634Z,91.33
2018-11-11T03:20:29.731Z,91.09
2018-11-11T03:22:57.826Z,90.68
2018-11-11T03:25:25.971Z,91.17
2018-11-11T03:27:54.151Z,90.71
2018-11-11T03:30:22.253Z,90.53
2018-11-11T03:32:50.437Z,89.99
2018-11-11T03:35:19.111Z,89.90
2018-11-11T03:37:47.389Z,90.05
2018-11-11T03:40:17.860Z,89.19
2018-11-11T03:42:47.134Z,89.36
2018-11-11T03:45:16.638Z,89.25
2018-11-11T03:47:45.757Z,89.11
2018-11-11T03:50:13.865Z,88.79
2018-11-11T03:52:42.192Z,88.99
2018-11-11T03:55:10.557Z,89.17
2018-11-11T03:57:38.939Z,89.12
2018-11-11T04:00:08.987Z,89.25
2018-11-11T04:02:37.116Z,89.11
2018-11-11T04:05:05.631Z,88.39
2018-11-11T04:07:33.773Z,88.10
2018-11-11T04:10:01.875Z,88.17
2018-11-11T04:12:29.981Z,88.98
2018-11-11T04:14:58.091Z,88.91
2018-11-11T04:17:26.203Z,88.25
2018-11-11T04:19:54.301Z,88.09
2018-11-11T04:22:22.414Z,88.67
2018-11-11T04:24:51.812Z,87.93
2018-11-11T04:27:20.409Z,88.44
2018-11-11T04:29:48.690Z,87.72
2018-11-11T04:32:16.757Z,87.78
2018-11-11T04:34:44.859Z,88.02
2018-11-11T04:37:12.983Z,88.08
2018-11-11T04:39:42.587Z,88.29
2018-11-11T04:42:10.694Z,87.92
2018-11-11T04:44:38.790Z,88.09
2018-11-11T04:47:07.014Z,87.86
2018-11-11T04:49:36.073Z,87.75
2018-11-11T04:52:04.189Z,87.70
2018-11-11T04:54:32.323Z,87.40
2018-11-11T04:57:00.429Z,87.73
2018-11-11T04:59:28.538Z,87.29
2018-11-11T05:01:56.646Z,87.26
2018-11-11T05:04:24.816Z,86.75
2018-11-11T05:06:52.898Z,87.00
2018-11-11T05:09:20.992Z,86.10
2018-11-11T05:11:49.115Z,85.84
2018-11-11T05:14:17.249Z,85.65
2018-11-11T05:16:46.421Z,85.83
2018-11-11T05:19:14.532Z,85.16
2018-11-11T05:21:42.619Z,85.79
2018-11-11T05:24:10.766Z,85.23
2018-11-11T05:26:38.861Z,85.11
2018-11-11T05:29:07.286Z,84.96
2018-11-11T05:31:35.448Z,85.02
2018-11-11T05:34:03.567Z,85.11
2018-11-11T05:36:31.674Z,85.85
2018-11-11T05:38:59.770Z,85.40
2018-11-11T05:41:27.894Z,85.70
2018-11-11T05:43:56.419Z,86.03
2018-11-11T05:46:24.532Z,86.15
2018-11-11T05:48:52.633Z,86.15
2018-11-11T05:51:20.751Z,85.32
2018-11-11T05:53:48.852Z,85.45
2018-11-11T05:56:16.943Z,86.65
2018-11-11T05:58:45.078Z,86.05
2018-11-11T06:01:13.218Z,85.95
2018-11-11T06:03:41.358Z,86.72
2018-11-11T06:06:09.470Z,86.00
2018-11-11T06:08:37.655Z,86.53
2018-11-11T06:11:12.562Z,85.62
2018-11-11T06:13:40.658Z,86.05
2018-11-11T06:16:08.788Z,85.37
2018-11-11T06:18:37.009Z,84.87
2018-11-11T06:21:05.298Z,85.08
2018-11-11T06:23:33.393Z,85.13
2018-11-11T06:26:01.507Z,84.25
2018-11-11T06:28:29.701Z,84.32
2018-11-11T06:30:57.804Z,84.86
2018-11-11T06:33:25.911Z,85.03
2018-11-11T06:35:54.101Z,85.09
2018-11-11T06:38:22.370Z,85.19
2018-11-11T06:40:50.569Z,85.18
2018-11-11T06:43:18.717Z,84.98
2018-11-11T06:45:46.829Z,84.64
2018-11-11T06:48:15.031Z,84.94
2018-11-11T06:50:43.306Z,85.02
2018-11-11T06:53:11.397Z,85.00
2018-11-11T06:55:39.514Z,85.33
2018-11-11T06:58:07.648Z,85.41
2018-11-11T07:00:35.729Z,85.96
2018-11-11T07:03:15.590Z,86.10
2018-11-11T07:05:43.696Z,86.97
2018-11-11T07:08:11.810Z,87.83
2018-11-11T07:10:39.934Z,89.67
2018-11-11T07:13:08.038Z,90.18
2018-11-11T07:15:36.134Z,91.64
2018-11-11T07:18:04.242Z,91.56
2018-11-11T07:20:32.385Z,91.62
2018-11-11T07:23:00.485Z,92.05
2018-11-11T07:25:28.592Z,91.94
2018-11-11T07:27:56.789Z,91.34
2018-11-11T07:30:25.191Z,91.49
2018-11-11T07:32:53.315Z,92.14
2018-11-11T07:35:21.393Z,91.83
2018-11-11T07:37:49.489Z,92.15
2018-11-11T07:40:17.775Z,91.68
2018-11-11T07:42:45.954Z,92.14
2018-11-11T07:45:14.062Z,93.03
2018-11-11T07:47:42.192Z,94.05
2018-11-11T07:50:11.118Z,93.23
2018-11-11T07:52:39.381Z,93.32
2018-11-11T07:55:08.884Z,92.66
2018-11-11T07:57:37.076Z,92.58
2018-11-11T08:00:07.666Z,92.22
2018-11-11T08:02:35.902Z,91.80
2018-11-11T08:05:04.637Z,92.04
2018-11-11T08:07:32.738Z,92.31
2018-11-11T08:10:00.856Z,91.79
2018-11-11T08:12:29.776Z,92.34
2018-11-11T08:14:57.878Z,93.39
2018-11-11T08:17:25.990Z,93.39
2018-11-11T08:19:54.599Z,93.09
2018-11-11T08:22:22.706Z,92.61
2018-11-11T08:24:50.813Z,93.42
2018-11-11T08:27:18.959Z,92.86
2018-11-11T08:29:47.055Z,92.76
2018-11-11T08:32:15.223Z,92.68
2018-11-11T08:34:43.264Z,92.78
2018-11-11T08:37:11.452Z,92.75
2018-11-11T08:39:40.159Z,93.91
2018-11-11T08:42:08.333Z,92.06
2018-11-11T08:44:36.442Z,92.31
2018-11-11T08:47:04.587Z,91.35
2018-11-11T08:49:32.691Z,91.73
2018-11-11T08:52:04.606Z,91.10
2018-11-11T08:54:32.692Z,90.79
2018-11-11T08:57:00.811Z,90.06
2018-11-11T08:59:28.925Z,91.05
2018-11-11T09:01:57.050Z,90.50
2018-11-11T09:04:25.217Z,90.04
2018-11-11T09:06:55.038Z,89.15
2018-11-11T09:09:23.217Z,88.11
2018-11-11T09:11:51.458Z,89.20
2018-11-11T09:14:19.578Z,87.92
2018-11-11T09:16:49.417Z,87.13
2018-11-11T09:19:17.514Z,87.50
2018-11-11T09:21:45.689Z,87.92
2018-11-11T09:24:13.830Z,87.55
2018-11-11T09:26:41.913Z,86.16
2018-11-11T09:29:10.326Z,85.57
2018-11-11T09:31:38.695Z,84.08
2018-11-11T09:34:06.827Z,84.14
2018-11-11T09:36:34.978Z,84.77
2018-11-11T09:39:03.572Z,83.85
2018-11-11T09:41:32.921Z,82.09
2018-11-11T09:44:01.079Z,82.06
2018-11-11T09:46:29.197Z,81.04
2018-11-11T09:48:57.407Z,81.50
2018-11-11T09:51:25.533Z,80.65
2018-11-11T09:53:53.786Z,80.29
2018-11-11T09:56:22.483Z,79.44
2018-11-11T09:58:50.686Z,79.62
2018-11-11T10:01:18.741Z,80.38
2018-11-11T10:03:51.498Z,79.35
2018-11-11T10:06:31.315Z,78.81
2018-11-11T10:09:05.495Z,78.35
2018-11-11T10:11:57.839Z,77.90
2018-11-11T10:14:31.180Z,77.44
2018-11-11T10:17:13.391Z,77.01
2018-11-11T10:19:45.370Z,77.13
2018-11-11T10:22:28.801Z,77.81
2018-11-11T10:25:02.361Z,78.89
2018-11-11T10:27:36.946Z,78.87
2018-11-11T10:30:15.962Z,77.45
2018-11-11T10:33:01.194Z,76.46
2018-11-11T10:35:34.541Z,76.48
2018-11-11T10:38:06.077Z,75.42
2018-11-11T10:40:39.704Z,75.36
2018-11-11T10:43:17.386Z,75.30
2018-11-11T10:45:50.946Z,74.45
2018-11-11T10:48:25.404Z,74.74
2018-11-11T10:50:58.082Z,74.47
2018-11-11T10:53:27.432Z,74.78
2018-11-11T10:55:55.870Z,73.70
2018-11-11T10:58:25.316Z,71.10
2018-11-11T11:01:01.017Z,69.76
2018-11-11T11:03:44.230Z,69.90
2018-11-11T11:06:15.542Z,70.81
2018-11-11T11:08:51.421Z,70.55
2018-11-11T11:11:21.384Z,71.89
2018-11-11T11:13:52.038Z,71.87
2018-11-11T11:16:21.499Z,71.77
2018-11-11T11:18:51.289Z,72.18
2018-11-11T11:21:21.899Z,72.29
2018-11-11T11:23:50.646Z,72.11
2018-11-11T11:26:18.843Z,73.30
2018-11-11T11:28:47.131Z,73.06
2018-11-11T11:31:15.681Z,73.87
2018-11-11T11:33:44.800Z,73.72
2018-11-11T11:36:14.234Z,73.35
2018-11-11T11:38:44.021Z,72.91
2018-11-11T11:41:16.535Z,72.88
2018-11-11T11:43:44.954Z,74.27
2018-11-11T11:46:14.733Z,79.45
2018-11-11T11:48:44.348Z,84.68
2018-11-11T11:51:14.972Z,84.45
2018-11-11T11:53:43.873Z,85.92
2018-11-11T11:56:13.129Z,86.73
2018-11-11T11:58:41.946Z,86.06
2018-11-11T12:01:10.099Z,86.76
2018-11-11T12:03:38.218Z,87.71
2018-11-11T12:06:06.331Z,90.18
2018-11-11T12:08:35.475Z,90.11
2018-11-11T12:11:03.528Z,90.70
2018-11-11T12:13:31.630Z,90.57
2018-11-11T12:15:59.797Z,90.47
2018-11-11T12:18:27.917Z,91.34
2018-11-11T12:20:56.023Z,90.92
2018-11-11T12:23:24.175Z,89.85
2018-11-11T12:25:52.314Z,90.18
2018-11-11T12:28:20.475Z,90.52
2018-11-11T12:30:48.654Z,91.53
2018-11-11T12:33:16.740Z,91.01
2018-11-11T12:35:45.003Z,91.03
2018-11-11T12:38:13.113Z,91.53
2018-11-11T12:40:41.284Z,92.32
2018-11-11T12:43:09.450Z,90.33
2018-11-11T12:45:37.814Z,90.59
2018-11-11T12:48:10.499Z,90.97
2018-11-11T12:50:38.668Z,90.80
2018-11-11T12:53:06.787Z,90.74
2018-11-11T12:55:35.017Z,92.31
2018-11-11T12:58:03.058Z,91.67
2018-11-11T13:00:31.184Z,91.44
2018-11-11T13:02:59.388Z,92.39
2018-11-11T13:05:29.768Z,91.49
2018-11-11T13:07:58.602Z,90.37
2018-11-11T13:10:28.656Z,87.98
2018-11-11T13:13:00.011Z,88.90
2018-11-11T13:15:30.669Z,89.38
2018-11-11T13:18:00.705Z,87.62
2018-11-11T13:20:28.902Z,88.08
2018-11-11T13:22:57.934Z,87.49
2018-11-11T13:25:25.961Z,88.76
2018-11-11T13:27:54.080Z,87.18
2018-11-11T13:30:22.257Z,88.46
2018-11-11T13:32:50.369Z,88.15
2018-11-11T13:35:18.486Z,87.40
2018-11-11T13:37:46.833Z,87.59
2018-11-11T13:40:17.101Z,86.51
2018-11-11T13:42:45.280Z,87.14
2018-11-11T13:45:15.719Z,87.45
2018-11-11T13:47:44.898Z,87.03
2018-11-11T13:50:15.153Z,87.91
2018-11-11T13:52:44.222Z,87.16
2018-11-11T13:55:13.561Z,87.75
2018-11-11T13:57:42.505Z,87.62
2018-11-11T14:00:19.690Z,89.17
2018-11-11T14:02:47.838Z,88.56
2018-11-11T14:05:16.143Z,89.38
2018-11-11T14:07:44.298Z,90.52
2018-11-11T14:10:13.105Z,91.31
2018-11-11T14:12:41.294Z,92.56
2018-11-11T14:15:16.858Z,92.24
2018-11-11T14:17:46.675Z,92.71
2018-11-11T14:20:16.266Z,93.21
2018-11-11T14:22:45.558Z,93.56
2018-11-11T14:25:16.346Z,93.99
2018-11-11T14:27:44.988Z,93.76
2018-11-11T14:30:15.673Z,93.89
2018-11-11T14:32:44.377Z,93.94
2018-11-11T14:35:12.858Z,93.91
2018-11-11T14:37:41.141Z,94.05
2018-11-11T14:40:12.491Z,94.21
2018-11-11T14:42:41.067Z,94.49
2018-11-11T14:45:10.566Z,94.33
2018-11-11T14:47:39.880Z,94.66
2018-11-11T14:50:09.321Z,94.64
2018-11-11T14:52:37.721Z,95.07
2018-11-11T14:55:09.310Z,94.74
2018-11-11T14:57:37.604Z,94.28
2018-11-11T15:00:10.287Z,95.07
2018-11-11T15:02:38.452Z,94.77
2018-11-11T15:05:08.582Z,94.85
2018-11-11T15:07:36.698Z,95.21
2018-11-11T15:10:06.985Z,94.92
2018-11-11T15:12:35.056Z,95.32
2018-11-11T15:15:03.171Z,94.77
2018-11-11T15:17:31.333Z,95.01
2018-11-11T15:20:00.190Z,94.87
2018-11-11T15:22:28.284Z,95.28
2018-11-11T15:24:56.394Z,95.03
2018-11-11T15:27:25.079Z,94.38
2018-11-11T15:29:53.183Z,94.71
2018-11-11T15:32:21.306Z,94.99
2018-11-11T15:34:49.470Z,95.59
2018-11-11T15:37:17.806Z,95.61
2018-11-11T15:39:46.135Z,95.60
2018-11-11T15:42:15.035Z,95.61
2018-11-11T15:44:44.217Z,95.17
2018-11-11T15:47:12.362Z,95.43
2018-11-11T15:49:41.120Z,95.98
2018-11-11T15:52:09.328Z,95.68
2018-11-11T15:54:37.361Z,96.03
2018-11-11T15:57:05.845Z,95.49
2018-11-11T15:59:35.641Z,95.50
2018-11-11T16:02:03.746Z,95.46
2018-11-11T16:04:31.981Z,95.69
2018-11-11T16:07:00.154Z,95.83
2018-11-11T16:09:28.273Z,95.73
2018-11-11T16:11:56.467Z,95.14
2018-11-11T16:14:24.588Z,95.04
2018-11-11T16:16:52.866Z,95.44
2018-11-11T16:19:22.675Z,95.74
2018-11-11T16:21:51.720Z,95.40
2018-11-11T16:24:20.377Z,95.73
2018-11-11T16:26:49.004Z,95.83
2018-11-11T16:29:17.296Z,95.95
2018-11-11T16:31:45.417Z,96.27
2018-11-11T16:34:13.532Z,95.78
2018-11-11T16:36:41.768Z,96.06
2018-11-11T16:39:11.451Z,96.06
2018-11-11T16:41:39.694Z,95.42
2018-11-11T16:44:08.273Z,95.90
2018-11-11T16:46:36.398Z,95.89
2018-11-11T16:49:07.297Z,96.33
2018-11-11T16:51:36.572Z,95.97
2018-11-11T16:54:05.563Z,96.06
2018-11-11T16:56:33.913Z,95.46
2018-11-11T16:59:02.022Z,95.72
2018-11-11T17:01:30.193Z,95.33
2018-11-11T17:03:58.599Z,95.73
2018-11-11T17:06:26.733Z,95.62
2018-11-11T17:08:55.070Z,95.84
2018-11-11T17:11:23.282Z,96.27
2018-11-11T17:13:52.286Z,96.19
2018-11-11T17:16:20.417Z,96.21
2018-11-11T17:18:48.536Z,96.03
2018-11-11T17:21:16.686Z,96.01
2018-11-11T17:23:44.774Z,96.22
2018-11-11T17:26:13.041Z,96.25
2018-11-11T17:28:41.818Z,96.55
2018-11-11T17:31:09.916Z,96.87
2018-11-11T17:33:38.018Z,97.03
2018-11-11T17:36:07.764Z,96.80
2018-11-11T17:38:35.897Z,96.38
2018-11-11T17:41:04.023Z,96.14
2018-11-11T17:43:32.206Z,95.99
2018-11-11T17:46:00.337Z,94.56
2018-11-11T17:48:28.493Z,95.34
2018-11-11T17:51:00.196Z,94.26
2018-11-11T17:53:28.566Z,94.57
2018-11-11T17:55:56.785Z,95.44
2018-11-11T17:58:27.250Z,95.02
2018-11-11T18:00:55.393Z,94.49
2018-11-11T18:03:24.126Z,93.55
2018-11-11T18:05:53.355Z,93.76
2018-11-11T18:08:22.587Z,93.82
2018-11-11T18:10:50.688Z,93.52
2018-11-11T18:13:18.821Z,94.43
2018-11-11T18:15:47.105Z,94.78
2018-11-11T18:18:16.558Z,94.61
2018-11-11T18:20:46.097Z,93.12
2018-11-11T18:23:15.277Z,94.17
2018-11-11T18:25:44.907Z,93.03
2018-11-11T18:28:13.103Z,94.02
2018-11-11T18:30:41.197Z,93.96
2018-11-11T18:33:10.642Z,94.04
2018-11-11T18:35:38.758Z,94.32
2018-11-11T18:38:06.924Z,93.70
2018-11-11T18:40:35.134Z,94.60
2018-11-11T18:43:03.444Z,95.72
2018-11-11T18:45:32.517Z,94.55
2018-11-11T18:48:01.444Z,94.82
2018-11-11T18:50:30.937Z,95.52
2018-11-11T18:52:59.457Z,95.75
2018-11-11T18:55:27.713Z,95.59
2018-11-11T18:57:56.988Z,95.37
2018-11-11T19:00:26.297Z,96.11
2018-11-11T19:02:55.276Z,95.95
2018-11-11T19:05:25.961Z,95.47
2018-11-11T19:07:56.431Z,95.82
2018-11-11T19:10:28.171Z,95.83
2018-11-11T19:12:57.700Z,94.56
2018-11-11T19:15:25.719Z,95.29
2018-11-11T19:17:54.384Z,95.49
2018-11-11T19:20:23.601Z,94.84
2018-11-11T19:22:52.465Z,95.75
2018-11-11T19:25:21.837Z,95.27
2018-11-11T19:27:54.172Z,95.23
2018-11-11T19:30:23.695Z,95.57
2018-11-11T19:32:52.305Z,95.36
2018-11-11T19:35:20.510Z,95.43
2018-11-11T19:37:50.011Z,95.27
2018-11-11T19:40:19.614Z,95.73
2018-11-11T19:42:47.992Z,96.17
2018-11-11T19:45:18.590Z,96.28
2018-11-11T19:47:46.754Z,96.15
2018-11-11T19:50:16.473Z,95.97
2018-11-11T19:52:45.926Z,95.40
2018-11-11T19:55:23.849Z,95.33
2018-11-11T19:57:52.178Z,95.75
2018-11-11T20:00:23.628Z,95.67
2018-11-11T20:02:53.313Z,95.57
2018-11-11T20:05:23.665Z,95.56
2018-11-11T20:07:53.272Z,95.76
2018-11-11T20:10:22.139Z,96.33
2018-11-11T20:12:50.231Z,96.52
2018-11-11T20:15:26.193Z,96.28
2018-11-11T20:17:54.277Z,96.69
2018-11-11T20:20:23.942Z,96.20
2018-11-11T20:22:52.721Z,96.43
2018-11-11T20:25:21.858Z,96.28
2018-11-11T20:27:50.014Z,95.84
2018-11-11T20:30:25.259Z,95.90
2018-11-11T20:32:53.727Z,96.32
2018-11-11T20:35:23.402Z,95.97
2018-11-11T20:37:51.796Z,95.90
2018-11-11T20:40:21.318Z,96.53
2018-11-11T20:42:50.259Z,96.44
2018-11-11T20:45:19.957Z,96.38
2018-11-11T20:47:48.811Z,96.64
2018-11-11T20:50:20.167Z,96.11
2018-11-11T20:52:49.751Z,96.72
2018-11-11T20:55:18.561Z,96.43
2018-11-11T20:57:47.222Z,96.34
2018-11-11T21:00:17.660Z,96.43
2018-11-11T21:02:45.883Z,96.45
2018-11-11T21:05:17.190Z,96.26
2018-11-11T21:07:45.670Z,96.50
2018-11-11T21:10:16.729Z,96.42
2018-11-11T21:12:44.990Z,96.67
2018-11-11T21:15:14.476Z,96.77
2018-11-11T21:17:42.778Z,96.31
2018-11-11T21:20:12.621Z,96.17
2018-11-11T21:22:41.034Z,96.20
2018-11-11T21:25:09.442Z,96.40
2018-11-11T21:27:39.585Z,96.54
2018-11-11T21:30:10.252Z,96.65
2018-11-11T21:32:38.448Z,96.83
2018-11-11T21:35:06.642Z,96.62
2018-11-11T21:37:34.790Z,96.41
2018-11-11T21:40:03.135Z,96.44
2018-11-11T21:42:31.550Z,96.50
2018-11-11T21:44:59.668Z,96.55
2018-11-11T21:47:27.825Z,96.44
2018-11-11T21:49:56.049Z,96.55
2018-11-11T21:52:24.179Z,96.22
2018-11-11T21:54:52.316Z,96.23
2018-11-11T21:57:20.497Z,96.30
2018-11-11T21:59:48.602Z,96.55
2018-11-11T22:02:16.876Z,96.38
2018-11-11T22:04:44.906Z,96.30
2018-11-11T22:07:13.025Z,96.03
2018-11-11T22:09:41.677Z,96.19
2018-11-11T22:12:09.885Z,96.04
2018-11-11T22:14:38.037Z,95.78
2018-11-11T22:17:06.380Z,96.07
2018-11-11T22:19:34.546Z,95.92
2018-11-11T22:22:02.709Z,96.25
2018-11-11T22:24:30.894Z,95.75
2018-11-11T22:26:59.012Z,96.18
2018-11-11T22:29:27.103Z,95.84
2018-11-11T22:31:56.033Z,96.30
2018-11-11T22:34:24.146Z,96.24
2018-11-11T22:36:52.265Z,96.57
2018-11-11T22:39:20.445Z,96.23
2018-11-11T22:41:48.569Z,95.87
2018-11-11T22:44:17.006Z,94.91
2018-11-11T22:46:45.129Z,95.88
2018-11-11T22:49:13.312Z,95.79
2018-11-11T22:51:41.434Z,95.92
2018-11-11T22:54:09.549Z,96.12
2018-11-11T22:56:38.313Z,95.98
2018-11-11T22:59:07.368Z,95.78
2018-11-11T23:01:35.499Z,96.15
2018-11-11T23:04:03.695Z,96.33
2018-11-11T23:06:32.636Z,96.31
2018-11-11T23:09:00.758Z,95.91
2018-11-11T23:11:28.858Z,96.16
2018-11-11T23:13:56.965Z,96.04
2018-11-11T23:16:25.095Z,96.32
2018-11-11T23:18:53.190Z,96.21
2018-11-11T23:21:21.299Z,95.79
2018-11-11T23:23:50.098Z,95.99
2018-11-11T23:26:18.221Z,95.68
2018-11-11T23:28:46.334Z,95.63
2018-11-11T23:31:14.450Z,95.34
2018-11-11T23:33:42.558Z,95.37
2018-11-11T23:36:10.671Z,94.98
2018-11-11T23:38:39.266Z,95.43
2018-11-11T23:41:07.385Z,95.68
2018-11-11T23:43:35.490Z,95.48
2018-11-11T23:46:04.441Z,95.32
2018-11-11T23:48:32.548Z,94.90
2018-11-11T23:51:00.750Z,95.26
2018-11-11T23:53:28.861Z,95.26
2018-11-11T23:55:56.952Z,95.33
2018-11-11T23:58:25.063Z,95.19
